createdAt,value
2022-12-08T00:00:07.774Z,1004.32
2022-12-08T00:01:06.146Z,1004.32
2022-12-08T00:02:05.885Z,1004.30
2022-12-08T00:03:05.197Z,1004.24
2022-12-08T00:04:04.115Z,1004.26
2022-12-08T00:05:04.476Z,1004.26
2022-12-08T00:06:04.011Z,1004.26
2022-12-08T00:07:04.157Z,1004.25
2022-12-08T00:08:04.884Z,1004.22
2022-12-08T00:09:04.175Z,1004.23
2022-12-08T00:10:18.840Z,1004.26
2022-12-08T00:11:06.440Z,1004.28
2022-12-08T00:12:04.003Z,1004.24
2022-12-08T00:13:04.087Z,1004.18
2022-12-08T00:14:04.198Z,1004.19
2022-12-08T00:15:04.484Z,1004.13
2022-12-08T00:16:04.452Z,1004.13
2022-12-08T00:17:04.032Z,1004.13
2022-12-08T00:18:05.459Z,1004.19
2022-12-08T00:19:04.544Z,1004.17
2022-12-08T00:20:03.739Z,1004.17
2022-12-08T00:21:03.857Z,1004.18
2022-12-08T00:22:05.290Z,1004.09
2022-12-08T00:23:04.182Z,1004.12
2022-12-08T00:24:03.945Z,1004.14
2022-12-08T00:25:04.044Z,1004.08
2022-12-08T00:26:03.841Z,1004.08
2022-12-08T00:27:09.086Z,1004.01
2022-12-08T00:28:04.700Z,1004.03
2022-12-08T00:29:07.582Z,1003.97
2022-12-08T00:30:05.041Z,1003.93
2022-12-08T00:31:05.756Z,1003.91
2022-12-08T00:32:06.124Z,1003.88
2022-12-08T00:33:03.728Z,1003.90
2022-12-08T00:34:04.316Z,1003.88
2022-12-08T00:35:04.760Z,1003.88
2022-12-08T00:36:04.816Z,1003.96
2022-12-08T00:37:04.268Z,1004.02
2022-12-08T00:38:04.173Z,1003.96
2022-12-08T00:39:04.070Z,1003.96
2022-12-08T00:40:04.726Z,1003.89
2022-12-08T00:41:05.211Z,1003.84
2022-12-08T00:42:04.593Z,1003.87
2022-12-08T00:43:03.900Z,1003.83
2022-12-08T00:44:04.495Z,1003.86
2022-12-08T00:45:04.391Z,1003.82
2022-12-08T00:46:04.283Z,1003.79
2022-12-08T00:47:04.650Z,1003.80
2022-12-08T00:48:05.982Z,1003.74
2022-12-08T00:49:04.241Z,1003.77
2022-12-08T00:50:05.989Z,1003.73
2022-12-08T00:51:04.621Z,1003.73
2022-12-08T00:52:03.758Z,1003.70
2022-12-08T00:53:05.002Z,1003.64
2022-12-08T00:55:44.638Z,1003.53
2022-12-08T00:56:32.351Z,1003.61
2022-12-08T00:57:34.385Z,1003.56
2022-12-08T00:58:32.748Z,1003.53
2022-12-08T01:01:10.001Z,1003.50
2022-12-08T01:03:27.344Z,1003.46
2022-12-08T01:04:30.647Z,1003.49
2022-12-08T01:05:23.616Z,1003.49
2022-12-08T01:06:22.585Z,1003.51
2022-12-08T01:07:22.690Z,1003.53
2022-12-08T01:08:22.552Z,1003.53
2022-12-08T01:09:22.623Z,1003.60
2022-12-08T01:10:22.606Z,1003.54
2022-12-08T01:11:22.999Z,1003.57
2022-12-08T01:12:22.519Z,1003.56
2022-12-08T01:13:23.346Z,1003.58
2022-12-08T01:14:22.433Z,1003.57
2022-12-08T01:15:23.519Z,1003.59
2022-12-08T01:16:24.134Z,1003.57
2022-12-08T01:17:22.246Z,1003.63
2022-12-08T01:18:22.352Z,1003.59
2022-12-08T01:19:22.287Z,1003.61
2022-12-08T01:20:23.081Z,1003.57
2022-12-08T01:21:22.901Z,1003.59
2022-12-08T01:22:33.904Z,1003.61
2022-12-08T01:23:22.480Z,1003.59
2022-12-08T01:24:22.318Z,1003.58
2022-12-08T01:25:22.504Z,1003.56
2022-12-08T01:26:22.128Z,1003.54
2022-12-08T01:27:22.120Z,1003.54
2022-12-08T01:28:22.646Z,1003.54
2022-12-08T01:29:22.132Z,1003.55
2022-12-08T01:30:23.065Z,1003.54
2022-12-08T01:31:22.234Z,1003.57
2022-12-08T01:32:22.345Z,1003.58
2022-12-08T01:33:22.303Z,1003.52
2022-12-08T01:34:22.178Z,1003.47
2022-12-08T01:35:22.892Z,1003.45
2022-12-08T01:36:22.089Z,1003.48
2022-12-08T01:37:22.295Z,1003.43
2022-12-08T01:38:22.185Z,1003.41
2022-12-08T01:39:22.108Z,1003.40
2022-12-08T01:40:22.119Z,1003.40
2022-12-08T01:41:22.019Z,1003.37
2022-12-08T01:42:22.134Z,1003.39
2022-12-08T01:43:21.921Z,1003.34
2022-12-08T01:44:22.749Z,1003.33
2022-12-08T01:45:22.087Z,1003.32
2022-12-08T01:46:21.982Z,1003.30
2022-12-08T01:47:21.955Z,1003.31
2022-12-08T01:48:23.657Z,1003.28
2022-12-08T01:49:21.847Z,1003.29
2022-12-08T01:50:21.969Z,1003.28
2022-12-08T01:51:21.961Z,1003.29
2022-12-08T01:52:21.965Z,1003.32
2022-12-08T01:53:21.978Z,1003.31
2022-12-08T01:54:23.012Z,1003.33
2022-12-08T01:55:22.230Z,1003.30
2022-12-08T01:56:23.129Z,1003.26
2022-12-08T01:57:23.152Z,1003.26
2022-12-08T01:58:22.833Z,1003.23
2022-12-08T01:59:24.474Z,1003.22
2022-12-08T02:00:25.323Z,1003.28
2022-12-08T02:01:37.544Z,1003.22
2022-12-08T02:02:28.498Z,1003.23
2022-12-08T02:03:27.995Z,1003.23
2022-12-08T02:04:24.717Z,1003.16
2022-12-08T02:05:22.303Z,1003.13
2022-12-08T02:06:25.652Z,1003.19
2022-12-08T02:07:22.489Z,1003.19
2022-12-08T02:08:21.977Z,1003.24
2022-12-08T02:09:21.877Z,1003.22
2022-12-08T02:10:21.727Z,1003.24
2022-12-08T02:11:22.239Z,1003.18
2022-12-08T02:12:22.035Z,1003.15
2022-12-08T02:13:21.715Z,1003.16
2022-12-08T02:14:21.604Z,1003.12
2022-12-08T02:15:21.590Z,1003.17
2022-12-08T02:16:23.150Z,1003.13
2022-12-08T02:17:22.245Z,1003.13
2022-12-08T02:18:22.251Z,1003.09
2022-12-08T02:19:31.760Z,1003.02
2022-12-08T02:20:22.495Z,1003.07
2022-12-08T02:21:21.704Z,1002.99
2022-12-08T02:22:23.015Z,1002.95
2022-12-08T02:23:22.351Z,1002.97
2022-12-08T02:24:23.248Z,1002.96
2022-12-08T02:25:21.419Z,1002.94
2022-12-08T02:26:21.635Z,1003.00
2022-12-08T02:27:21.428Z,1002.90
2022-12-08T02:28:22.310Z,1002.92
2022-12-08T02:29:22.884Z,1002.92
2022-12-08T02:30:24.326Z,1002.94
2022-12-08T02:31:23.781Z,1002.92
2022-12-08T02:32:22.534Z,1002.91
2022-12-08T02:33:32.730Z,1002.94
2022-12-08T02:34:22.294Z,1002.94
2022-12-08T02:35:24.286Z,1002.96
2022-12-08T02:36:21.379Z,1002.94
2022-12-08T02:37:21.189Z,1002.91
2022-12-08T02:38:21.871Z,1002.93
2022-12-08T02:39:22.119Z,1002.93
2022-12-08T02:40:22.220Z,1002.86
2022-12-08T02:41:23.559Z,1002.90
2022-12-08T02:42:21.745Z,1002.82
2022-12-08T02:43:21.348Z,1002.87
2022-12-08T02:44:21.302Z,1002.86
2022-12-08T02:45:21.673Z,1002.84
2022-12-08T02:46:21.833Z,1002.84
2022-12-08T02:47:21.549Z,1002.78
2022-12-08T02:48:20.970Z,1002.72
2022-12-08T02:49:21.170Z,1002.68
2022-12-08T02:50:21.511Z,1002.69
2022-12-08T02:51:21.169Z,1002.65
2022-12-08T02:52:27.864Z,1002.61
2022-12-08T02:53:21.191Z,1002.67
2022-12-08T02:54:21.181Z,1002.64
2022-12-08T02:57:22.649Z,1002.64
2022-12-08T02:58:23.968Z,1002.67
2022-12-08T02:59:23.610Z,1002.66
2022-12-08T03:00:23.604Z,1002.66
2022-12-08T03:01:22.619Z,1002.69
2022-12-08T03:02:22.768Z,1002.60
2022-12-08T03:03:22.374Z,1002.61
2022-12-08T03:04:22.761Z,1002.60
2022-12-08T03:05:22.834Z,1002.55
2022-12-08T03:06:23.044Z,1002.54
2022-12-08T03:07:23.192Z,1002.52
2022-12-08T03:08:22.528Z,1002.53
2022-12-08T03:09:22.484Z,1002.48
2022-12-08T03:10:22.355Z,1002.46
2022-12-08T03:11:23.081Z,1002.44
2022-12-08T03:12:23.498Z,1002.41
2022-12-08T03:13:22.586Z,1002.48
2022-12-08T03:14:22.181Z,1002.40
2022-12-08T03:15:23.104Z,1002.42
2022-12-08T03:16:23.653Z,1002.42
2022-12-08T03:17:22.192Z,1002.41
2022-12-08T03:18:22.200Z,1002.35
2022-12-08T03:19:22.213Z,1002.32
2022-12-08T03:20:22.526Z,1002.28
2022-12-08T03:21:22.025Z,1002.35
2022-12-08T03:22:22.117Z,1002.33
2022-12-08T03:23:23.354Z,1002.36
2022-12-08T03:24:23.258Z,1002.33
2022-12-08T03:25:22.120Z,1002.34
2022-12-08T03:26:22.068Z,1002.24
2022-12-08T03:27:22.047Z,1002.30
2022-12-08T03:28:22.337Z,1002.35
2022-12-08T03:29:22.491Z,1002.31
2022-12-08T03:30:22.083Z,1002.28
2022-12-08T03:31:22.176Z,1002.23
2022-12-08T03:32:21.987Z,1002.24
2022-12-08T03:33:22.002Z,1002.20
2022-12-08T03:34:22.397Z,1002.11
2022-12-08T03:35:22.127Z,1002.25
2022-12-08T03:36:24.277Z,1002.19
2022-12-08T03:37:22.856Z,1002.22
2022-12-08T03:38:23.250Z,1002.23
2022-12-08T03:39:31.858Z,1002.24
2022-12-08T03:40:21.744Z,1002.28
2022-12-08T03:54:10.236Z,1002.05
2022-12-08T03:55:09.961Z,1002.14
2022-12-08T03:56:10.996Z,1002.12
2022-12-08T03:57:09.976Z,1002.14
2022-12-08T03:58:09.981Z,1002.09
2022-12-08T03:59:10.116Z,1002.07
2022-12-08T04:00:11.004Z,1002.03
2022-12-08T04:01:10.087Z,1002.01
2022-12-08T04:02:09.966Z,1002.06
2022-12-08T04:03:10.149Z,1002.01
2022-12-08T04:04:10.650Z,1002.00
2022-12-08T04:05:10.037Z,1001.98
2022-12-08T04:06:10.870Z,1001.98
2022-12-08T04:07:10.155Z,1001.96
2022-12-08T04:08:09.721Z,1001.98
2022-12-08T04:09:10.585Z,1001.94
2022-12-08T04:10:10.677Z,1001.96
2022-12-08T04:11:12.227Z,1002.00
2022-12-08T04:12:10.914Z,1001.92
2022-12-08T04:13:10.702Z,1001.89
2022-12-08T04:14:10.189Z,1001.92
2022-12-08T04:15:10.527Z,1001.94
2022-12-08T04:16:09.743Z,1001.97
2022-12-08T04:17:09.819Z,1001.96
2022-12-08T04:18:09.828Z,1001.99
2022-12-08T04:19:09.637Z,1001.98
2022-12-08T04:20:10.953Z,1001.95
2022-12-08T04:21:09.954Z,1001.99
2022-12-08T04:22:11.587Z,1002.00
2022-12-08T04:23:12.193Z,1001.99
2022-12-08T04:24:17.630Z,1002.03
2022-12-08T04:25:10.184Z,1002.01
2022-12-08T04:26:09.980Z,1001.99
2022-12-08T04:27:32.832Z,1002.05
2022-12-08T04:28:11.002Z,1002.04
2022-12-08T04:29:11.117Z,1001.96
2022-12-08T04:30:11.211Z,1002.01
2022-12-08T04:31:09.667Z,1001.98
2022-12-08T04:32:09.580Z,1001.90
2022-12-08T04:33:09.503Z,1001.89
2022-12-08T04:34:11.183Z,1001.88
2022-12-08T04:35:12.186Z,1001.87
2022-12-08T04:36:12.822Z,1001.86
2022-12-08T04:37:09.941Z,1001.87
2022-12-08T04:38:09.449Z,1001.83
2022-12-08T04:39:14.389Z,1001.87
2022-12-08T04:40:17.153Z,1001.80
2022-12-08T04:41:13.356Z,1001.94
2022-12-08T04:42:10.581Z,1001.94
2022-12-08T04:43:09.217Z,1001.96
2022-12-08T05:11:18.998Z,1001.64
2022-12-08T05:12:17.578Z,1001.74
2022-12-08T05:13:16.871Z,1001.74
2022-12-08T05:14:17.069Z,1001.77
2022-12-08T05:15:17.098Z,1001.73
2022-12-08T05:16:17.251Z,1001.73
2022-12-08T05:17:17.375Z,1001.67
2022-12-08T05:18:17.413Z,1001.61
2022-12-08T05:19:16.914Z,1001.64
2022-12-08T05:20:17.629Z,1001.59
2022-12-08T05:21:17.246Z,1001.58
2022-12-08T05:22:17.039Z,1001.61
2022-12-08T05:23:17.118Z,1001.71
2022-12-08T05:24:17.167Z,1001.76
2022-12-08T05:25:17.057Z,1001.75
2022-12-08T05:26:16.928Z,1001.70
2022-12-08T05:27:16.885Z,1001.73
2022-12-08T05:28:40.727Z,1001.72
2022-12-08T05:29:18.806Z,1001.84
2022-12-08T05:30:16.801Z,1001.80
2022-12-08T05:31:17.300Z,1001.78
2022-12-08T05:32:17.024Z,1001.84
2022-12-08T05:33:16.804Z,1001.83
2022-12-08T05:34:17.206Z,1001.81
2022-12-08T05:35:17.529Z,1001.82
2022-12-08T05:36:16.841Z,1001.79
2022-12-08T05:37:16.733Z,1001.79
2022-12-08T05:38:16.773Z,1001.75
2022-12-08T05:39:16.711Z,1001.76
2022-12-08T05:40:16.679Z,1001.79
2022-12-08T05:41:16.857Z,1001.75
2022-12-08T05:42:20.488Z,1001.77
2022-12-08T05:43:17.914Z,1001.73
2022-12-08T05:44:16.755Z,1001.71
2022-12-08T05:45:17.543Z,1001.70
2022-12-08T05:46:16.928Z,1001.64
2022-12-08T05:47:19.773Z,1001.69
2022-12-08T05:48:17.439Z,1001.70
2022-12-08T05:49:17.403Z,1001.75
2022-12-08T05:50:16.794Z,1001.74
2022-12-08T05:51:17.449Z,1001.82
2022-12-08T05:52:17.471Z,1001.76
2022-12-08T05:53:17.430Z,1001.81
2022-12-08T05:54:17.124Z,1001.73
2022-12-08T05:55:16.361Z,1001.73
2022-12-08T05:56:16.666Z,1001.74
2022-12-08T05:57:16.587Z,1001.77
2022-12-08T05:58:16.375Z,1001.79
2022-12-08T05:59:16.366Z,1001.73
2022-12-08T06:00:16.465Z,1001.74
2022-12-08T06:01:17.939Z,1001.75
2022-12-08T06:02:16.512Z,1001.78
2022-12-08T06:03:16.383Z,1001.72
2022-12-08T06:04:16.706Z,1001.77
2022-12-08T06:05:16.434Z,1001.79
2022-12-08T06:06:16.532Z,1001.81
2022-12-08T06:07:17.242Z,1001.79
2022-12-08T06:08:16.534Z,1001.71
2022-12-08T06:09:16.621Z,1001.79
2022-12-08T06:10:16.369Z,1001.82
2022-12-08T06:11:16.779Z,1001.90
2022-12-08T06:12:16.451Z,1001.85
2022-12-08T06:13:16.186Z,1001.85
2022-12-08T06:14:16.285Z,1001.81
2022-12-08T06:15:17.203Z,1001.82
2022-12-08T06:16:17.871Z,1001.83
2022-12-08T06:17:16.293Z,1001.81
2022-12-08T06:18:16.201Z,1001.81
2022-12-08T06:19:16.413Z,1001.78
2022-12-08T06:20:16.439Z,1001.86
2022-12-08T06:21:16.935Z,1001.94
2022-12-08T06:22:16.307Z,1002.03
2022-12-08T06:23:22.561Z,1002.03
2022-12-08T06:24:16.371Z,1001.96
2022-12-08T06:25:16.648Z,1001.97
2022-12-08T06:26:17.388Z,1002.00
2022-12-08T06:27:16.358Z,1001.98
2022-12-08T06:28:24.164Z,1002.12
2022-12-08T06:29:18.210Z,1002.01
2022-12-08T06:30:16.837Z,1002.00
2022-12-08T06:31:15.995Z,1001.95
2022-12-08T06:32:16.650Z,1002.01
2022-12-08T06:33:18.254Z,1001.96
2022-12-08T06:36:45.839Z,1001.93
2022-12-08T06:37:45.212Z,1001.89
2022-12-08T06:38:44.292Z,1001.88
2022-12-08T06:39:44.909Z,1001.90
2022-12-08T06:40:44.186Z,1001.89
2022-12-08T06:41:44.135Z,1001.92
2022-12-08T06:42:44.203Z,1001.92
2022-12-08T06:43:44.232Z,1001.99
2022-12-08T06:44:44.337Z,1001.92
2022-12-08T06:45:45.524Z,1001.96
2022-12-08T06:46:44.166Z,1001.96
2022-12-08T06:47:44.187Z,1001.96
2022-12-08T06:48:44.153Z,1001.96
2022-12-08T06:49:45.082Z,1001.97
2022-12-08T06:50:44.465Z,1001.96
2022-12-08T06:51:44.094Z,1001.98
2022-12-08T06:52:54.287Z,1002.01
2022-12-08T06:53:45.038Z,1002.01
2022-12-08T06:54:44.780Z,1002.03
2022-12-08T06:55:58.698Z,1002.01
2022-12-08T06:56:45.128Z,1002.00
2022-12-08T06:57:44.944Z,1002.04
2022-12-08T06:58:48.952Z,1001.95
2022-12-08T06:59:45.057Z,1001.98
2022-12-08T07:00:44.023Z,1002.00
2022-12-08T07:01:43.941Z,1002.06
2022-12-08T07:02:44.168Z,1002.08
2022-12-08T07:03:45.007Z,1002.11
2022-12-08T07:04:44.802Z,1002.11
2022-12-08T07:05:43.774Z,1002.12
2022-12-08T07:06:44.821Z,1002.11
2022-12-08T07:07:43.816Z,1002.09
2022-12-08T07:08:45.120Z,1002.08
2022-12-08T07:09:44.446Z,1002.08
2022-12-08T07:10:43.820Z,1002.04
2022-12-08T07:11:43.840Z,1002.06
2022-12-08T07:12:43.729Z,1002.02
2022-12-08T07:13:44.040Z,1002.07
2022-12-08T07:15:02.284Z,1002.06
2022-12-08T07:15:43.858Z,1002.09
2022-12-08T07:16:43.782Z,1002.07
2022-12-08T07:17:43.656Z,1002.09
2022-12-08T07:18:43.869Z,1002.11
2022-12-08T07:20:10.296Z,1002.12
2022-12-08T07:20:43.775Z,1002.11
2022-12-08T07:21:43.783Z,1002.11
2022-12-08T07:22:43.813Z,1002.11
2022-12-08T07:23:43.811Z,1002.16
2022-12-08T07:24:44.234Z,1002.11
2022-12-08T07:25:44.755Z,1002.18
2022-12-08T07:26:45.964Z,1002.21
2022-12-08T07:27:44.266Z,1002.28
2022-12-08T07:28:45.154Z,1002.28
2022-12-08T07:29:45.094Z,1002.25
2022-12-08T07:30:45.039Z,1002.26
2022-12-08T07:31:48.248Z,1002.27
2022-12-08T07:32:44.209Z,1002.24
2022-12-08T07:33:44.597Z,1002.23
2022-12-08T07:34:46.200Z,1002.19
2022-12-08T07:35:49.617Z,1002.16
2022-12-08T07:36:45.728Z,1002.15
2022-12-08T07:37:47.275Z,1002.22
2022-12-08T07:38:43.923Z,1002.22
2022-12-08T07:39:47.626Z,1002.17
2022-12-08T08:22:14.003Z,1001.88
2022-12-08T08:26:13.326Z,1001.85
2022-12-08T08:27:13.305Z,1002.00
2022-12-08T08:28:09.742Z,1002.15
2022-12-08T08:29:09.263Z,1002.24
2022-12-08T08:30:16.611Z,1002.33
2022-12-08T08:31:10.742Z,1002.43
2022-12-08T08:32:12.053Z,1002.33
2022-12-08T08:33:11.031Z,1002.33
2022-12-08T08:34:12.750Z,1002.29
2022-12-08T08:35:09.491Z,1002.31
2022-12-08T08:36:09.082Z,1002.30
2022-12-08T08:37:11.637Z,1002.34
2022-12-08T08:38:08.819Z,1002.29
2022-12-08T08:39:10.976Z,1002.27
2022-12-08T08:40:09.336Z,1002.29
2022-12-08T08:41:11.596Z,1002.26
2022-12-08T08:42:11.099Z,1002.32
2022-12-08T08:43:09.247Z,1002.36
2022-12-08T08:44:09.784Z,1002.44
2022-12-08T08:46:42.484Z,1002.37
2022-12-08T08:47:36.008Z,1002.45
2022-12-08T08:48:38.257Z,1002.37
2022-12-08T08:49:36.034Z,1002.34
2022-12-08T08:50:37.665Z,1002.34
2022-12-08T08:51:36.832Z,1002.36
2022-12-08T08:52:35.405Z,1002.38
2022-12-08T08:53:37.262Z,1002.42
2022-12-08T08:54:37.152Z,1002.41
2022-12-08T08:56:02.835Z,1002.45
2022-12-08T08:56:38.230Z,1002.40
2022-12-08T08:57:41.341Z,1002.39
2022-12-08T08:58:42.645Z,1002.37
2022-12-08T08:59:37.743Z,1002.39
2022-12-08T09:00:36.107Z,1002.39
2022-12-08T09:01:35.516Z,1002.37
2022-12-08T09:02:38.182Z,1002.39
2022-12-08T09:03:43.802Z,1002.39
2022-12-08T09:18:15.764Z,1002.18
2022-12-08T09:33:46.865Z,1002.02
2022-12-08T09:44:23.522Z,1002.09
2022-12-08T09:50:28.040Z,1002.02
2022-12-08T10:46:22.887Z,1002.45
2022-12-08T10:47:06.749Z,1002.55
2022-12-08T10:48:08.911Z,1002.61
2022-12-08T10:49:11.677Z,1002.64
2022-12-08T10:50:10.015Z,1002.63
2022-12-08T10:51:05.663Z,1002.64
2022-12-08T10:52:04.407Z,1002.73
2022-12-08T10:53:08.841Z,1002.67
2022-12-08T10:54:09.648Z,1002.68
2022-12-08T10:55:08.025Z,1002.68
2022-12-08T10:56:07.219Z,1002.71
2022-12-08T10:57:12.962Z,1002.66
2022-12-08T10:58:07.018Z,1002.67
2022-12-08T10:59:07.145Z,1002.65
2022-12-08T11:00:13.790Z,1002.65
2022-12-08T11:01:06.042Z,1002.65
2022-12-08T11:02:07.356Z,1002.63
2022-12-08T11:03:14.141Z,1002.65
2022-12-08T11:04:06.375Z,1002.64
2022-12-08T11:05:12.820Z,1002.64
2022-12-08T11:06:10.765Z,1002.68
2022-12-08T11:07:06.803Z,1002.72
2022-12-08T11:08:04.584Z,1002.71
2022-12-08T11:09:24.945Z,1002.76
2022-12-08T11:10:05.206Z,1002.72
2022-12-08T11:11:04.863Z,1002.73
2022-12-08T11:12:03.313Z,1002.67
2022-12-08T11:13:06.137Z,1002.74
2022-12-08T11:14:03.345Z,1002.73
2022-12-08T11:15:03.441Z,1002.78
2022-12-08T11:16:03.397Z,1002.81
2022-12-08T11:17:05.376Z,1002.85
2022-12-08T11:18:16.508Z,1002.81
2022-12-08T11:19:06.056Z,1002.78
2022-12-08T11:20:06.304Z,1002.81
2022-12-08T11:21:08.223Z,1002.82
2022-12-08T11:35:20.512Z,1002.67
2022-12-08T11:36:18.848Z,1002.71
2022-12-08T11:37:19.712Z,1002.70
2022-12-08T11:38:22.569Z,1002.72
2022-12-08T11:39:19.686Z,1002.75
2022-12-08T11:40:18.914Z,1002.73
2022-12-08T11:41:19.822Z,1002.71
2022-12-08T11:42:18.519Z,1002.70
2022-12-08T11:43:19.107Z,1002.69
2022-12-08T11:44:19.511Z,1002.75
2022-12-08T11:45:19.330Z,1002.72
2022-12-08T11:46:18.782Z,1002.75
2022-12-08T11:49:23.452Z,1002.62
2022-12-08T11:50:18.035Z,1002.64
2022-12-08T11:51:13.767Z,1002.70
2022-12-08T11:52:13.742Z,1002.66
2022-12-08T11:53:12.661Z,1002.61
2022-12-08T11:54:12.762Z,1002.61
2022-12-08T11:55:12.829Z,1002.62
2022-12-08T11:56:13.058Z,1002.65
2022-12-08T11:57:13.693Z,1002.65
2022-12-08T11:58:12.608Z,1002.62
2022-12-08T11:59:12.963Z,1002.63
2022-12-08T12:00:12.518Z,1002.64
2022-12-08T12:01:12.916Z,1002.67
2022-12-08T12:02:12.815Z,1002.68
2022-12-08T12:03:12.772Z,1002.75
2022-12-08T12:04:12.516Z,1002.77
2022-12-08T12:05:12.705Z,1002.77
2022-12-08T12:06:53.123Z,1002.76
2022-12-08T12:07:14.090Z,1002.79
2022-12-08T12:08:12.570Z,1002.73
2022-12-08T12:09:12.545Z,1002.70
2022-12-08T12:10:12.450Z,1002.70
2022-12-08T12:11:12.692Z,1002.64
2022-12-08T12:12:12.367Z,1002.71
2022-12-08T12:13:12.490Z,1002.71
2022-12-08T12:14:12.306Z,1002.73
2022-12-08T12:15:12.917Z,1002.71
2022-12-08T12:16:13.356Z,1002.72
2022-12-08T12:17:12.593Z,1002.70
2022-12-08T12:18:16.660Z,1002.75
2022-12-08T12:19:13.463Z,1002.75
2022-12-08T12:20:13.174Z,1002.71
2022-12-08T12:21:15.092Z,1002.72
2022-12-08T12:22:12.344Z,1002.76
2022-12-08T12:23:12.442Z,1002.78
2022-12-08T12:24:12.370Z,1002.75
2022-12-08T12:25:12.557Z,1002.72
2022-12-08T12:26:13.180Z,1002.73
2022-12-08T12:27:12.295Z,1002.72
2022-12-08T12:28:13.395Z,1002.79
2022-12-08T12:29:12.599Z,1002.83
2022-12-08T12:30:13.184Z,1002.82
2022-12-08T12:31:12.325Z,1002.82
2022-12-08T12:33:59.203Z,1002.69
2022-12-08T12:50:52.373Z,1002.68
2022-12-08T12:53:28.740Z,1002.77
2022-12-08T12:54:26.693Z,1002.77
2022-12-08T12:55:27.944Z,1002.79
2022-12-08T12:56:27.315Z,1002.80
2022-12-08T12:57:27.455Z,1002.81
2022-12-08T12:58:26.717Z,1002.87
2022-12-08T12:59:26.535Z,1002.88
2022-12-08T13:00:27.454Z,1002.87
2022-12-08T13:01:28.316Z,1002.89
2022-12-08T13:02:26.783Z,1002.86
2022-12-08T13:03:26.482Z,1002.89
2022-12-08T13:04:26.769Z,1002.89
2022-12-08T13:05:29.560Z,1002.92
2022-12-08T13:06:26.708Z,1002.93
2022-12-08T13:07:27.452Z,1002.95
2022-12-08T13:08:26.519Z,1002.93
2022-12-08T13:09:27.323Z,1002.95
2022-12-08T13:10:27.140Z,1002.99
2022-12-08T13:11:26.639Z,1002.86
2022-12-08T13:12:26.820Z,1002.90
2022-12-08T13:13:26.836Z,1002.88
2022-12-08T13:14:27.130Z,1002.85
2022-12-08T13:15:27.621Z,1002.83
2022-12-08T13:16:26.588Z,1002.80
2022-12-08T13:17:26.367Z,1002.78
2022-12-08T13:18:26.352Z,1002.76
2022-12-08T13:19:26.355Z,1002.79
2022-12-08T13:20:26.756Z,1002.75
2022-12-08T13:21:26.697Z,1002.70
2022-12-08T13:22:26.679Z,1002.71
2022-12-08T13:23:26.284Z,1002.76
2022-12-08T13:24:26.380Z,1002.75
2022-12-08T13:25:26.633Z,1002.79
2022-12-08T13:26:26.306Z,1002.84
2022-12-08T13:27:27.502Z,1002.83
2022-12-08T13:28:27.334Z,1002.93
2022-12-08T13:29:26.118Z,1002.92
2022-12-08T13:30:26.141Z,1002.91
2022-12-08T13:31:26.242Z,1002.90
2022-12-08T13:32:26.155Z,1002.95
2022-12-08T13:33:26.174Z,1002.95
2022-12-08T13:34:26.186Z,1002.93
2022-12-08T13:35:27.388Z,1002.91
2022-12-08T13:36:27.286Z,1002.85
2022-12-08T13:37:26.983Z,1002.81
2022-12-08T13:38:28.647Z,1002.91
2022-12-08T13:39:26.068Z,1002.91
2022-12-08T13:40:29.287Z,1002.91
2022-12-08T13:43:12.834Z,1002.77
2022-12-08T13:44:50.285Z,1002.75
2022-12-08T13:47:34.897Z,1002.86
2022-12-08T13:49:32.009Z,1002.88
2022-12-08T13:51:15.925Z,1002.91
2022-12-08T13:54:36.718Z,1002.94
2022-12-08T13:57:30.665Z,1003.03
2022-12-08T13:58:30.347Z,1003.07
2022-12-08T13:59:29.636Z,1003.04
2022-12-08T14:00:29.611Z,1003.03
2022-12-08T14:01:30.323Z,1003.11
2022-12-08T14:02:29.717Z,1003.06
2022-12-08T14:03:29.798Z,1003.08
2022-12-08T14:04:47.827Z,1003.12
2022-12-08T14:06:03.427Z,1003.11
2022-12-08T14:06:32.062Z,1003.11
2022-12-08T14:07:29.586Z,1003.15
2022-12-08T14:08:58.053Z,1003.12
2022-12-08T14:09:30.539Z,1003.16
2022-12-08T14:10:33.388Z,1003.16
2022-12-08T14:11:35.091Z,1003.14
2022-12-08T14:12:30.843Z,1003.12
2022-12-08T14:13:33.485Z,1003.21
2022-12-08T14:15:03.292Z,1003.17
2022-12-08T14:15:37.729Z,1003.19
2022-12-08T14:16:29.518Z,1003.21
2022-12-08T14:17:29.245Z,1003.29
2022-12-08T14:18:29.423Z,1003.30
2022-12-08T14:19:30.484Z,1003.27
2022-12-08T14:20:29.375Z,1003.25
2022-12-08T14:21:35.836Z,1003.22
2022-12-08T14:22:30.319Z,1003.27
2022-12-08T14:23:29.335Z,1003.29
2022-12-08T14:24:29.663Z,1003.25
2022-12-08T14:25:29.123Z,1003.26
2022-12-08T14:26:29.283Z,1003.22
2022-12-08T14:27:29.344Z,1003.25
2022-12-08T14:28:29.121Z,1003.20
2022-12-08T14:29:31.635Z,1003.23
2022-12-08T14:30:29.125Z,1003.21
2022-12-08T14:31:30.002Z,1003.23
2022-12-08T14:32:29.141Z,1003.16
2022-12-08T14:33:29.062Z,1003.19
2022-12-08T14:34:29.164Z,1003.18
2022-12-08T14:35:29.064Z,1003.19
2022-12-08T14:36:29.169Z,1003.09
2022-12-08T14:37:29.888Z,1003.16
2022-12-08T14:38:30.149Z,1003.15
2022-12-08T14:39:29.001Z,1003.28
2022-12-08T14:40:29.214Z,1003.25
2022-12-08T14:41:28.890Z,1003.22
2022-12-08T14:42:29.005Z,1003.32
2022-12-08T14:43:28.920Z,1003.33
2022-12-08T14:44:29.651Z,1003.28
2022-12-08T14:45:28.832Z,1003.30
2022-12-08T14:46:53.872Z,1003.34
2022-12-08T14:47:29.164Z,1003.34
2022-12-08T14:48:28.929Z,1003.35
2022-12-08T14:49:28.938Z,1003.35
2022-12-08T14:50:29.440Z,1003.37
2022-12-08T14:51:29.981Z,1003.36
2022-12-08T14:52:29.056Z,1003.37
2022-12-08T14:53:32.329Z,1003.28
2022-12-08T14:54:28.769Z,1003.30
2022-12-08T14:55:28.908Z,1003.36
2022-12-08T14:56:29.085Z,1003.28
2022-12-08T14:57:28.610Z,1003.34
2022-12-08T17:27:17.821Z,1003.74
2022-12-08T17:27:30.797Z,1003.90
2022-12-08T17:28:51.962Z,1003.99
2022-12-08T17:29:31.844Z,1004.06
2022-12-08T17:30:30.827Z,1004.04
2022-12-08T17:31:31.583Z,1004.07
2022-12-08T17:32:31.156Z,1004.13
2022-12-08T17:33:30.746Z,1004.12
2022-12-08T17:34:30.852Z,1004.10
2022-12-08T17:35:30.747Z,1004.15
2022-12-08T17:36:30.859Z,1004.16
2022-12-08T17:37:30.878Z,1004.16
2022-12-08T17:38:30.751Z,1004.17
2022-12-08T17:39:33.037Z,1004.16
2022-12-08T17:40:30.798Z,1004.16
2022-12-08T17:41:30.706Z,1004.13
2022-12-08T17:42:30.868Z,1004.20
2022-12-08T17:43:30.846Z,1004.23
2022-12-08T17:44:30.725Z,1004.22
2022-12-08T17:45:30.679Z,1004.19
2022-12-08T17:46:30.803Z,1004.17
2022-12-08T17:47:31.122Z,1004.19
2022-12-08T17:48:30.636Z,1004.19
2022-12-08T17:49:30.637Z,1004.20
2022-12-08T17:50:30.864Z,1004.26
2022-12-08T17:51:30.878Z,1004.24
2022-12-08T17:52:30.775Z,1004.26
2022-12-08T17:53:35.869Z,1004.26
2022-12-08T17:54:31.521Z,1004.26
2022-12-08T17:55:30.577Z,1004.24
2022-12-08T17:56:30.983Z,1004.22
2022-12-08T17:57:30.500Z,1004.23
2022-12-08T17:58:30.597Z,1004.28
2022-12-08T17:59:30.564Z,1004.26
2022-12-08T18:00:30.598Z,1004.32
2022-12-08T18:01:30.637Z,1004.29
2022-12-08T18:02:30.473Z,1004.33
2022-12-08T18:03:30.641Z,1004.35
2022-12-08T18:04:30.441Z,1004.28
2022-12-08T18:05:30.432Z,1004.34
2022-12-08T18:06:31.349Z,1004.34
2022-12-08T18:07:30.357Z,1004.32
2022-12-08T18:08:30.828Z,1004.30
2022-12-08T18:09:30.490Z,1004.28
2022-12-08T18:10:30.283Z,1004.26
2022-12-08T18:11:30.442Z,1004.21
2022-12-08T18:12:51.280Z,1004.29
2022-12-08T18:13:30.406Z,1004.21
2022-12-08T18:14:30.315Z,1004.17
2022-12-08T18:15:33.551Z,1004.15
2022-12-08T18:16:31.443Z,1004.07
2022-12-08T18:17:30.417Z,1004.08
2022-12-08T18:18:31.072Z,1004.01
2022-12-08T18:19:30.254Z,1004.05
2022-12-08T18:20:30.153Z,1004.01
2022-12-08T18:21:30.531Z,1004.04
2022-12-08T18:22:30.272Z,1004.06
2022-12-08T18:23:30.257Z,1004.09
2022-12-08T18:24:30.293Z,1004.18
2022-12-08T18:25:30.185Z,1004.12
2022-12-08T18:26:30.736Z,1004.17
2022-12-08T18:27:30.201Z,1004.16
2022-12-08T18:28:30.188Z,1004.10
2022-12-08T18:29:30.138Z,1004.15